createdAt,value
2023-02-25T00:04:29.974Z,100243.53
2023-02-25T00:09:32.741Z,100272.44
2023-02-25T00:14:35.428Z,100274.81
2023-02-25T00:19:38.167Z,100277.66
2023-02-25T00:24:40.811Z,100282.50
2023-02-25T00:29:43.685Z,100280.91
2023-02-25T00:34:46.921Z,100287.84
2023-02-25T00:39:49.651Z,100297.25
2023-02-25T00:44:52.344Z,100290.84
2023-02-25T00:49:54.984Z,100314.53
2023-02-25T00:54:57.678Z,100327.88
2023-02-25T01:00:00.505Z,100313.00
2023-02-25T01:05:03.854Z,100328.22
2023-02-25T01:10:08.864Z,100338.16
2023-02-25T01:15:12.316Z,100312.66
2023-02-25T01:20:20.168Z,100347.91
2023-02-25T01:25:23.063Z,100353.06
2023-02-25T01:30:25.854Z,100363.63
2023-02-25T01:35:28.518Z,100349.81
2023-02-25T01:40:31.307Z,100354.78
2023-02-25T01:45:44.358Z,100376.91
2023-02-25T01:50:52.908Z,100390.19
2023-02-25T01:55:56.863Z,100383.06
2023-02-25T02:00:59.692Z,100417.81
2023-02-25T02:06:39.078Z,100410.38
2023-02-25T02:11:43.289Z,100434.59
2023-02-25T02:16:59.623Z,100453.28
2023-02-25T02:22:35.711Z,100441.16
2023-02-25T02:27:53.348Z,100472.47
2023-02-25T02:33:10.513Z,100469.78
2023-02-25T02:38:27.996Z,100476.28
2023-02-25T02:43:41.802Z,100481.03
2023-02-25T02:48:56.627Z,100495.66
2023-02-25T02:54:07.486Z,100505.69
2023-02-25T02:59:26.148Z,100497.34
2023-02-25T03:04:31.794Z,100524.78
2023-02-25T03:09:50.069Z,100517.03
2023-02-25T03:14:53.068Z,100528.69
2023-02-25T03:20:18.451Z,100520.13
2023-02-25T03:25:29.781Z,100538.50
2023-02-25T03:30:49.567Z,100541.88
2023-02-25T03:35:55.481Z,100557.34
2023-02-25T03:41:08.551Z,100572.34
2023-02-25T03:46:16.046Z,100572.38
2023-02-25T03:51:22.444Z,100592.16
2023-02-25T03:56:26.020Z,100582.91
2023-02-25T04:01:30.960Z,100584.06
2023-02-25T04:06:33.828Z,100580.59
2023-02-25T04:11:37.198Z,100602.50
2023-02-25T04:16:40.112Z,100595.34
2023-02-25T04:21:47.337Z,100587.72
2023-02-25T04:26:50.048Z,100603.94
2023-02-25T04:31:53.145Z,100630.34
2023-02-25T04:36:56.042Z,100641.38
2023-02-25T04:41:59.071Z,100619.25
2023-02-25T04:47:01.837Z,100636.75
2023-02-25T04:52:04.645Z,100656.47
2023-02-25T04:57:08.292Z,100659.53
2023-02-25T05:02:11.399Z,100647.09
2023-02-25T05:07:14.073Z,100666.78
2023-02-25T05:12:16.747Z,100674.84
2023-02-25T05:17:19.567Z,100689.59
2023-02-25T05:22:23.252Z,100679.41
2023-02-25T05:27:26.106Z,100645.91
2023-02-25T05:32:31.698Z,100694.81
2023-02-25T05:37:34.811Z,100701.81
2023-02-25T05:42:38.295Z,100707.94
2023-02-25T05:47:41.003Z,100713.13
2023-02-25T05:52:43.922Z,100724.91
2023-02-25T05:57:46.591Z,100717.31
2023-02-25T06:02:49.412Z,100706.16
2023-02-25T06:07:52.204Z,100713.38
2023-02-25T06:12:54.892Z,100707.31
2023-02-25T06:17:57.686Z,100733.88
2023-02-25T06:23:00.356Z,100714.16
2023-02-25T06:28:04.022Z,100720.75
2023-02-25T06:33:06.708Z,100727.53
2023-02-25T06:38:09.701Z,100728.91
2023-02-25T06:43:12.481Z,100743.34
2023-02-25T06:48:15.383Z,100734.97
2023-02-25T06:53:18.103Z,100731.50
2023-02-25T06:58:20.852Z,100741.16
2023-02-25T07:03:23.628Z,100742.78
2023-02-25T07:08:26.369Z,100750.78
2023-02-25T07:13:29.079Z,100752.59
2023-02-25T07:18:31.655Z,100756.78
2023-02-25T07:23:36.753Z,100743.47
2023-02-25T07:28:40.175Z,100758.84
2023-02-25T07:33:43.080Z,100757.09
2023-02-25T07:38:47.187Z,100766.63
2023-02-25T07:43:49.960Z,100751.84
2023-02-25T07:48:54.971Z,100746.72
2023-02-25T07:54:03.817Z,100767.31
2023-02-25T07:59:06.548Z,100765.00
2023-02-25T08:04:10.718Z,100763.09
2023-02-25T08:09:14.231Z,100769.84
2023-02-25T08:14:16.950Z,100763.72
2023-02-25T08:19:19.659Z,100762.69
2023-02-25T08:24:23.020Z,100777.44
2023-02-25T08:29:26.196Z,100779.94
2023-02-25T08:34:28.932Z,100780.97
2023-02-25T08:39:31.784Z,100764.72
2023-02-25T08:44:34.439Z,100764.72
2023-02-25T08:49:39.350Z,100764.38
2023-02-25T08:54:42.084Z,100756.34
2023-02-25T08:59:44.710Z,100763.19
2023-02-25T09:04:47.462Z,100752.31
2023-02-25T09:09:50.181Z,100760.50
2023-02-25T09:14:52.906Z,100772.03
2023-02-25T09:19:55.816Z,100763.97
2023-02-25T09:24:58.523Z,100764.50
2023-02-25T09:30:01.437Z,100773.91
2023-02-25T09:35:07.919Z,100776.25
2023-02-25T09:40:11.874Z,100773.34
2023-02-25T09:45:18.273Z,100759.00
2023-02-25T09:50:27.707Z,100780.38
2023-02-25T09:55:39.692Z,100801.31
2023-02-25T10:01:06.458Z,100801.31
2023-02-25T10:06:21.655Z,100817.84
2023-02-25T10:11:36.480Z,100822.97
2023-02-25T10:16:51.109Z,100833.34
2023-02-25T10:22:02.855Z,100828.22
2023-02-25T10:27:24.846Z,100830.28
2023-02-25T10:32:31.493Z,100823.94
2023-02-25T10:37:39.802Z,100851.47
2023-02-25T10:42:47.628Z,100861.56
2023-02-25T10:48:04.565Z,100848.53
2023-02-25T10:53:18.026Z,100857.97
2023-02-25T10:58:44.829Z,100863.56
2023-02-25T11:03:47.662Z,100859.97
2023-02-25T11:08:51.455Z,100865.44
2023-02-25T11:14:03.133Z,100863.09
2023-02-25T11:19:23.364Z,100875.38
2023-02-25T11:24:35.522Z,100877.47
2023-02-25T11:29:41.198Z,100884.53
2023-02-25T11:34:50.533Z,100877.59
2023-02-25T11:39:55.438Z,100888.53
2023-02-25T11:45:03.599Z,100896.56
2023-02-25T11:50:18.645Z,100893.97
2023-02-25T11:55:42.781Z,100898.19
2023-02-25T12:00:55.509Z,100909.63
2023-02-25T12:06:13.523Z,100921.16
2023-02-25T12:11:24.354Z,100928.47
2023-02-25T12:16:46.719Z,100939.44
2023-02-25T12:22:15.121Z,100949.72
2023-02-25T12:27:34.428Z,100952.88
2023-02-25T12:33:08.324Z,100956.97
2023-02-25T12:38:52.244Z,100961.06
2023-02-25T12:44:22.312Z,100942.31
2023-02-25T12:49:43.043Z,100978.34
2023-02-25T12:54:51.620Z,100982.59
2023-02-25T13:00:10.693Z,100955.00
2023-02-25T13:05:42.379Z,101009.31
2023-02-25T13:11:08.340Z,101014.03
2023-02-25T13:16:28.675Z,101023.66
2023-02-25T13:21:43.745Z,101040.22
2023-02-25T13:27:22.553Z,101039.22
2023-02-25T13:32:26.957Z,101052.47
2023-02-25T13:37:44.533Z,101067.38
2023-02-25T13:43:12.163Z,101070.41
2023-02-25T13:48:18.330Z,101060.16
2023-02-25T13:53:36.174Z,101072.09
2023-02-25T13:59:00.345Z,101074.97
2023-02-25T14:04:05.872Z,101088.06
2023-02-25T14:09:46.596Z,101091.63
2023-02-25T14:15:20.473Z,101101.00
2023-02-25T14:20:29.428Z,101097.84
2023-02-25T14:25:56.469Z,101095.19
2023-02-25T14:31:11.525Z,101104.03
2023-02-25T14:36:37.458Z,101112.88
2023-02-25T14:42:03.673Z,101102.78
2023-02-25T14:47:19.732Z,101101.19
2023-02-25T14:52:41.155Z,101125.38
2023-02-25T14:58:09.014Z,101125.19
2023-02-25T15:03:17.403Z,101123.06
2023-02-25T15:08:51.431Z,101135.22
2023-02-25T15:14:19.270Z,101144.59
2023-02-25T15:20:00.369Z,101158.88
2023-02-25T15:25:21.916Z,101167.50
2023-02-25T15:30:27.335Z,101175.44
2023-02-25T15:35:35.944Z,101189.91
2023-02-25T15:40:45.409Z,101196.78
2023-02-25T15:45:55.902Z,101203.13
2023-02-25T15:51:00.899Z,101183.34
2023-02-25T15:56:06.951Z,101224.03
2023-02-25T16:01:39.859Z,101224.72
2023-02-25T16:06:42.854Z,101225.47
2023-02-25T16:11:56.379Z,101233.78
2023-02-25T16:17:24.170Z,101245.44
2023-02-25T16:22:28.807Z,101249.16
2023-02-25T16:27:43.662Z,101251.44
2023-02-25T16:33:04.561Z,101261.53
2023-02-25T16:38:16.033Z,101258.00
2023-02-25T16:43:31.074Z,101270.75
2023-02-25T16:49:11.749Z,101282.44
2023-02-25T16:54:18.106Z,101301.16
2023-02-25T16:59:22.722Z,101299.75
2023-02-25T17:04:30.172Z,101302.03
2023-02-25T17:09:32.990Z,101312.22
2023-02-25T17:14:36.069Z,101326.63
2023-02-25T17:19:38.902Z,101338.19
2023-02-25T17:24:41.818Z,101297.06
2023-02-25T17:29:46.142Z,101348.25
2023-02-25T17:34:49.899Z,101353.78
2023-02-25T17:39:52.757Z,101358.31
2023-02-25T17:44:55.526Z,101374.25
2023-02-25T17:50:00.533Z,101379.06
2023-02-25T17:55:06.545Z,101356.56
2023-02-25T18:00:36.244Z,101401.50
2023-02-25T18:05:51.610Z,101400.97
2023-02-25T18:11:16.301Z,101422.38
2023-02-25T18:16:30.897Z,101420.72
2023-02-25T18:21:40.308Z,101418.34
2023-02-25T18:27:19.899Z,101430.59
2023-02-25T18:32:25.118Z,101442.63
2023-02-25T18:37:29.083Z,101448.94
2023-02-25T18:42:31.622Z,101456.28
2023-02-25T18:47:34.302Z,101463.25
2023-02-25T18:52:37.984Z,101471.66
2023-02-25T18:57:40.754Z,101479.53
2023-02-25T19:02:52.241Z,101470.84
2023-02-25T19:07:55.401Z,101474.09
2023-02-25T19:13:08.892Z,101483.25
2023-02-25T19:18:15.958Z,101496.34
2023-02-25T19:23:19.877Z,101508.28
2023-02-25T19:28:22.533Z,101501.22
2023-02-25T19:33:25.243Z,101504.78
2023-02-25T19:38:28.047Z,101514.00
2023-02-25T19:43:31.893Z,101513.22
2023-02-25T19:48:34.736Z,101532.41
2023-02-25T19:53:37.831Z,101536.19
2023-02-25T19:58:40.584Z,101538.91
2023-02-25T20:03:43.593Z,101538.97
2023-02-25T20:08:52.711Z,101544.47
2023-02-25T20:13:55.477Z,101558.53
2023-02-25T20:18:58.362Z,101562.34
2023-02-25T20:24:01.567Z,101569.53
2023-02-25T20:29:04.973Z,101585.72
2023-02-25T20:34:07.796Z,101575.31
2023-02-25T20:39:25.858Z,101600.53
2023-02-25T20:44:28.787Z,101605.66
2023-02-25T20:49:31.763Z,101612.69
2023-02-25T20:54:34.512Z,101616.56
2023-02-25T20:59:37.239Z,101605.28
2023-02-25T21:04:39.939Z,101625.19
2023-02-25T21:09:42.705Z,101645.00
2023-02-25T21:14:45.501Z,101642.88
2023-02-25T21:19:48.147Z,101658.50
2023-02-25T21:24:50.866Z,101641.50
2023-02-25T21:29:53.626Z,101678.00
2023-02-25T21:34:56.421Z,101679.16
2023-02-25T21:39:59.127Z,101689.47
2023-02-25T21:45:02.173Z,101694.44
2023-02-25T21:50:06.906Z,101700.97
2023-02-25T21:55:10.229Z,101671.19
2023-02-25T22:00:14.663Z,101712.41
2023-02-25T22:05:17.619Z,101699.06
2023-02-25T22:10:21.372Z,101722.53
2023-02-25T22:15:24.863Z,101727.69
2023-02-25T22:20:27.573Z,101740.38
2023-02-25T22:25:33.138Z,101733.72
2023-02-25T22:30:35.853Z,101749.97
2023-02-25T22:35:38.910Z,101742.78
2023-02-25T22:40:42.631Z,101757.50
2023-02-25T22:45:45.590Z,101766.22
2023-02-25T22:50:50.973Z,101762.59
2023-02-25T22:55:53.569Z,101770.44
2023-02-25T23:00:56.500Z,101780.72
2023-02-25T23:05:59.237Z,101775.66
2023-02-25T23:11:31.667Z,101798.00
2023-02-25T23:16:37.440Z,101800.03
2023-02-25T23:21:40.318Z,101808.31
2023-02-25T23:26:44.083Z,101807.00
2023-02-25T23:31:48.764Z,101829.56
2023-02-25T23:36:55.717Z,101840.31
2023-02-25T23:41:58.454Z,101838.53
2023-02-25T23:47:01.177Z,101853.91
2023-02-25T23:52:04.322Z,101853.94
2023-02-25T23:57:07.097Z,101863.78
